Time;durP1;ratioP1;P1;durP2;ratioP2;P2;SDS_P1;SDS_P2;PMS_P1;PMS_P2;Temp;Humidity;BMP_temperature;BMP_pressure;BME280_temperature;BME280_humidity;BME280_pressure;Samples;Min_cycle;Max_cycle;Signal;HPM_P1;HPM_P2
2022/08/25 00:00:17;;;;;;;1.37;1.37;;;25.30;64.50;;;;;;5090808;27;43952;-74
2022/08/25 00:02:45;;;;;;;1.33;1.33;;;25.30;64.50;;;;;;5088158;27;44288;-74
2022/08/25 00:05:25;;;;;;;1.57;1.50;;;25.30;64.60;;;;;;5088430;28;43401;-74
2022/08/25 00:07:56;;;;;;;1.40;1.40;;;25.30;64.80;;;;;;5088500;28;43941;-74
2022/08/25 00:10:24;;;;;;;1.30;1.30;;;25.30;64.90;;;;;;5089140;28;44066;-74
2022/08/25 00:12:52;;;;;;;1.23;1.20;;;25.30;64.80;;;;;;5070038;28;46138;-73
2022/08/25 00:15:21;;;;;;;1.30;1.30;;;25.20;64.80;;;;;;5069860;28;45213;-74
2022/08/25 00:17:49;;;;;;;1.40;1.40;;;25.20;64.80;;;;;;5088629;28;43968;-74
2022/08/25 00:20:17;;;;;;;1.30;1.30;;;25.20;65.10;;;;;;5089283;27;44005;-74
2022/08/25 00:22:47;;;;;;;1.40;1.40;;;25.20;64.90;;;;;;5069897;27;45728;-74
2022/08/25 00:25:16;;;;;;;1.40;1.40;;;25.30;64.50;;;;;;5095288;27;43417;-75
2022/08/25 00:27:44;;;;;;;1.40;1.40;;;25.50;64.00;;;;;;5090138;27;43336;-74
2022/08/25 00:30:15;;;;;;;1.40;1.40;;;25.50;63.60;;;;;;5102208;27;44003;-75
2022/08/25 00:32:43;;;;;;;1.37;1.37;;;25.60;63.50;;;;;;5107723;27;44022;-74
2022/08/25 00:35:22;;;;;;;1.30;1.30;;;25.60;63.60;;;;;;5090313;27;44102;-74
2022/08/25 00:37:51;;;;;;;1.30;1.30;;;25.50;64.00;;;;;;5087857;27;44332;-73
2022/08/25 00:40:19;;;;;;;1.30;1.30;;;25.50;64.10;;;;;;5089478;27;43381;-74
2022/08/25 00:42:48;;;;;;;1.30;1.30;;;25.40;64.10;;;;;;5105534;27;44063;-74
2022/08/25 00:45:17;;;;;;;1.50;1.50;;;25.40;65.00;;;;;;5089131;27;43971;-73
2022/08/25 00:47:45;;;;;;;1.45;1.45;;;25.30;64.50;;;;;;5107726;27;43355;-74
2022/08/25 00:50:13;;;;;;;1.40;1.40;;;25.30;64.60;;;;;;5108885;27;43966;-74
2022/08/25 00:52:43;;;;;;;1.50;1.50;;;25.30;64.60;;;;;;5088810;27;44022;-74
2022/08/25 00:55:14;;;;;;;1.40;1.40;;;25.30;65.40;;;;;;5108023;27;43982;-74
2022/08/25 00:57:44;;;;;;;1.40;1.40;;;25.30;65.60;;;;;;5089175;27;44023;-74
2022/08/25 01:00:15;;;;;;;1.50;1.50;;;25.20;64.70;;;;;;5108568;27;43849;-74
2022/08/25 01:02:43;;;;;;;1.33;1.33;;;25.30;64.60;;;;;;5093451;27;43968;-72
2022/08/25 01:05:11;;;;;;;1.40;1.40;;;25.40;64.20;;;;;;5087080;27;43980;-74
2022/08/25 01:07:39;;;;;;;1.43;1.43;;;25.50;63.70;;;;;;5068547;28;43444;-72
2022/08/25 01:10:12;;;;;;;1.40;1.40;;;25.60;63.40;;;;;;5087539;27;43999;-73
2022/08/25 01:12:40;;;;;;;1.30;1.30;;;25.50;63.30;;;;;;5068541;27;44181;-73
2022/08/25 01:15:09;;;;;;;1.30;1.30;;;25.50;63.60;;;;;;5087174;27;43436;-73
2022/08/25 01:17:44;;;;;;;1.38;1.38;;;25.50;64.00;;;;;;5075905;27;44024;-74
2022/08/25 01:20:13;;;;;;;1.30;1.30;;;25.40;64.00;;;;;;5087419;27;43920;-74
2022/08/25 01:22:43;;;;;;;1.30;1.30;;;25.40;64.10;;;;;;5087016;27;43955;-72
2022/08/25 01:25:27;;;;;;;1.40;1.40;;;25.30;64.20;;;;;;5068525;27;44969;-74
2022/08/25 01:27:55;;;;;;;1.60;1.60;;;25.30;64.50;;;;;;5067583;28;44025;-74
2022/08/25 01:30:23;;;;;;;1.37;1.37;;;25.30;64.60;;;;;;5086710;27;44063;-74
2022/08/25 01:32:52;;;;;;;1.58;1.58;;;25.30;64.60;;;;;;5085823;27;44109;-73
2022/08/25 01:35:20;;;;;;;1.50;1.50;;;25.30;64.70;;;;;;5068886;28;45136;-73
2022/08/25 01:37:49;;;;;;;1.45;1.45;;;25.20;64.90;;;;;;5086375;27;43900;-73
2022/08/25 01:40:17;;;;;;;1.40;1.40;;;25.30;64.80;;;;;;5068975;28;43571;-73
2022/08/25 01:42:52;;;;;;;1.52;1.52;;;25.30;64.50;;;;;;5085937;27;43999;-74
2022/08/25 01:45:20;;;;;;;1.30;1.30;;;25.50;64.00;;;;;;5086429;27;44005;-73
2022/08/25 01:47:48;;;;;;;1.50;1.50;;;25.60;63.50;;;;;;5086635;27;44004;-73
2022/08/25 01:50:16;;;;;;;1.50;1.50;;;25.60;63.20;;;;;;5068621;28;44012;-73
2022/08/25 01:52:53;;;;;;;1.43;1.43;;;25.60;63.20;;;;;;5086315;27;43944;-72
2022/08/25 01:55:21;;;;;;;1.30;1.30;;;25.50;63.60;;;;;;5106505;27;43810;-72
2022/08/25 01:57:49;;;;;;;1.40;1.40;;;25.50;63.70;;;;;;5067937;28;44018;-73
2022/08/25 02:00:17;;;;;;;1.30;1.30;;;25.40;63.70;;;;;;5086979;28;43907;-73
2022/08/25 02:02:46;;;;;;;1.40;1.40;;;25.40;63.90;;;;;;5099352;27;43850;-73
2022/08/25 02:05:19;;;;;;;1.70;1.60;;;25.30;64.10;;;;;;5087693;27;44972;-73
2022/08/25 02:07:52;;;;;;;1.60;1.60;;;25.30;64.40;;;;;;5106114;27;43920;-74
2022/08/25 02:10:21;;;;;;;1.50;1.50;;;25.30;64.40;;;;;;5106886;27;43882;-73
2022/08/25 02:12:50;;;;;;;1.40;1.40;;;25.30;64.40;;;;;;5105917;27;43679;-73
2022/08/25 02:15:21;;;;;;;1.48;1.48;;;25.30;64.50;;;;;;5090786;27;44704;-74
2022/08/25 02:17:49;;;;;;;1.33;1.33;;;25.30;64.60;;;;;;5109714;27;43337;-73
2022/08/25 02:20:17;;;;;;;1.40;1.40;;;25.30;64.30;;;;;;5110155;27;44435;-74
2022/08/25 02:22:45;;;;;;;1.40;1.40;;;25.40;64.10;;;;;;5082418;27;46025;-73
2022/08/25 02:25:25;;;;;;;1.63;1.53;;;25.50;63.50;;;;;;5088127;27;44381;-74
2022/08/25 02:27:53;;;;;;;1.70;1.70;;;25.50;63.20;;;;;;5109132;27;43963;-73
2022/08/25 02:30:21;;;;;;;1.60;1.60;;;25.50;63.00;;;;;;5110299;27;43964;-74
2022/08/25 02:32:49;;;;;;;1.70;1.70;;;25.50;63.30;;;;;;5108959;27;43697;-73
2022/08/25 02:35:17;;;;;;;1.50;1.50;;;25.40;63.60;;;;;;5109083;27;44001;-73
2022/08/25 02:37:45;;;;;;;1.47;1.47;;;25.40;63.70;;;;;;5090846;27;43940;-73
2022/08/25 02:40:13;;;;;;;1.52;1.52;;;25.40;63.80;;;;;;5106488;27;43484;-73
2022/08/25 02:42:43;;;;;;;1.58;1.35;;;25.30;63.80;;;;;;5087488;27;44177;-73
2022/08/25 02:45:11;;;;;;;1.40;1.40;;;25.30;64.10;;;;;;5109346;27;43931;-73
2022/08/25 02:47:39;;;;;;;1.60;1.60;;;25.30;64.00;;;;;;5109481;27;44030;-73
2022/08/25 02:50:08;;;;;;;1.67;1.57;;;25.30;64.10;;;;;;5109547;27;43384;-73
2022/08/25 02:52:37;;;;;;;1.50;1.50;;;25.30;64.10;;;;;;5108790;27;43941;-73
2022/08/25 02:55:06;;;;;;;1.40;1.40;;;25.20;64.30;;;;;;5090548;27;44652;-74
2022/08/25 02:57:34;;;;;;;1.30;1.30;;;25.20;64.40;;;;;;5108834;27;44037;-74
2022/08/25 03:00:05;;;;;;;1.55;1.55;;;25.20;64.40;;;;;;5104869;27;43951;-74
2022/08/25 03:02:33;;;;;;;1.50;1.50;;;25.20;64.30;;;;;;5107072;27;44785;-74
2022/08/25 03:05:01;;;;;;;1.60;1.60;;;25.20;64.40;;;;;;5085850;28;44694;-73
2022/08/25 03:07:29;;;;;;;1.65;1.65;;;25.10;64.30;;;;;;5089199;27;43429;-74
2022/08/25 03:10:05;;;;;;;1.60;1.60;;;25.20;65.00;;;;;;5088998;27;43968;-74
2022/08/25 03:12:34;;;;;;;1.55;1.55;;;25.30;63.90;;;;;;5095088;27;44360;-74
2022/08/25 03:15:03;;;;;;;1.70;1.70;;;25.50;63.30;;;;;;5108599;27;44136;-73
2022/08/25 03:17:36;;;;;;;1.42;1.42;;;25.60;62.90;;;;;;5109071;27;44005;-73
2022/08/25 03:20:05;;;;;;;1.40;1.40;;;25.50;62.50;;;;;;5089585;27;43850;-74
2022/08/25 03:22:33;;;;;;;1.40;1.40;;;25.50;63.00;;;;;;5088909;28;43918;-73
2022/08/25 03:27:49;;;;;;;1.73;1.73;;;25.40;63.50;;;;;;5087632;28;44106;-74
2022/08/25 03:30:19;;;;;;;1.50;1.50;;;25.40;63.60;;;;;;5070735;28;43559;-72
2022/08/25 03:32:47;;;;;;;1.55;1.50;;;25.40;63.70;;;;;;5090578;27;43994;-73
2022/08/25 03:35:15;;;;;;;1.50;1.50;;;25.30;64.10;;;;;;5108438;27;44072;-72
2022/08/25 03:37:43;;;;;;;1.70;1.70;;;25.30;64.00;;;;;;5107725;27;43985;-74
2022/08/25 03:40:12;;;;;;;1.70;1.70;;;25.40;63.70;;;;;;5108881;27;43899;-74
2022/08/25 03:42:44;;;;;;;1.77;1.77;;;25.40;63.60;;;;;;5107870;27;44055;-73
2022/08/25 03:45:12;;;;;;;1.70;1.70;;;25.40;63.50;;;;;;5089455;27;44955;-73
2022/08/25 03:47:42;;;;;;;1.70;1.70;;;25.30;63.50;;;;;;5108171;27;44043;-73
2022/08/25 03:50:11;;;;;;;1.93;1.70;;;25.30;63.80;;;;;;5108338;27;44027;-74
2022/08/25 03:52:39;;;;;;;1.50;1.50;;;25.30;63.70;;;;;;5089478;27;45814;-73
2022/08/25 03:55:11;;;;;;;1.50;1.50;;;25.30;63.70;;;;;;5089641;27;44800;-73
2022/08/25 03:57:39;;;;;;;1.67;1.67;;;25.30;63.60;;;;;;5075794;27;43696;-73
2022/08/25 04:00:08;;;;;;;1.63;1.58;;;25.30;64.00;;;;;;5108438;27;43931;-73
2022/08/25 04:02:39;;;;;;;1.80;1.70;;;25.30;64.00;;;;;;5107865;27;43913;-74
2022/08/25 04:05:09;;;;;;;1.55;1.55;;;25.30;63.90;;;;;;5095903;27;43979;-74
2022/08/25 04:07:37;;;;;;;1.67;1.67;;;25.20;63.70;;;;;;5088316;27;43959;-72
2022/08/25 04:10:06;;;;;;;1.52;1.52;;;25.20;64.00;;;;;;5070393;28;44068;-74
2022/08/25 04:12:34;;;;;;;1.50;1.50;;;25.20;64.00;;;;;;5093913;27;44011;-73
2022/08/25 04:15:02;;;;;;;1.60;1.60;;;25.30;63.80;;;;;;5107598;27;43926;-73
2022/08/25 04:17:30;;;;;;;1.60;1.60;;;25.40;63.20;;;;;;5108479;27;43932;-72
2022/08/25 04:19:58;;;;;;;1.60;1.60;;;25.50;62.80;;;;;;5102445;27;43456;-73
2022/08/25 04:22:28;;;;;;;1.63;1.63;;;25.60;62.70;;;;;;5087917;27;44128;-74
2022/08/25 04:24:58;;;;;;;1.80;1.80;;;25.50;62.60;;;;;;5087745;27;44091;-73
2022/08/25 04:27:26;;;;;;;1.80;1.70;;;25.50;62.70;;;;;;5087309;28;43973;-74
2022/08/25 04:29:53;;;;;;;1.67;1.67;;;25.40;62.90;;;;;;5087603;28;43940;-73
2022/08/25 04:32:21;;;;;;;1.50;1.50;;;25.40;63.10;;;;;;5069194;28;45450;-74
2022/08/25 04:34:50;;;;;;;1.53;1.53;;;25.40;63.10;;;;;;5069078;28;44960;-73
2022/08/25 04:37:19;;;;;;;1.80;1.80;;;25.40;63.20;;;;;;5088052;27;43929;-73
2022/08/25 04:39:49;;;;;;;1.67;1.67;;;25.30;63.60;;;;;;5088382;27;44084;-73
2022/08/25 04:42:17;;;;;;;1.43;1.43;;;25.30;63.60;;;;;;5069035;27;45704;-73
2022/08/25 04:44:45;;;;;;;1.60;1.60;;;25.30;63.50;;;;;;5082384;27;45138;-72
2022/08/25 04:47:13;;;;;;;1.58;1.58;;;25.20;63.30;;;;;;5081389;27;43422;-74
2022/08/25 04:49:41;;;;;;;1.70;1.70;;;25.20;63.90;;;;;;5088294;27;44105;-73
2022/08/25 04:52:09;;;;;;;1.73;1.73;;;25.20;63.70;;;;;;5088956;27;44060;-74
2022/08/25 04:54:41;;;;;;;1.70;1.70;;;25.20;63.40;;;;;;5082582;28;44403;-73
2022/08/25 04:57:11;;;;;;;1.88;1.88;;;25.20;63.10;;;;;;5087148;28;43893;-73
2022/08/25 04:59:40;;;;;;;1.90;1.90;;;25.20;63.70;;;;;;5088153;27;43948;-73
2022/08/25 05:02:08;;;;;;;1.63;1.63;;;25.20;63.60;;;;;;5079510;28;44914;-74
2022/08/25 05:04:36;;;;;;;1.90;1.80;;;25.20;63.30;;;;;;5088134;27;43754;-72
2022/08/25 05:07:05;;;;;;;1.80;1.80;;;25.30;62.90;;;;;;5094369;27;44078;-74
2022/08/25 05:09:33;;;;;;;1.80;1.80;;;25.50;62.30;;;;;;5088042;27;43366;-74
2022/08/25 05:12:01;;;;;;;1.70;1.60;;;25.60;61.90;;;;;;5087250;27;44839;-74
2022/08/25 05:14:31;;;;;;;1.83;1.80;;;25.60;61.40;;;;;;5087745;27;44119;-74
2022/08/25 05:16:59;;;;;;;1.50;1.50;;;25.60;61.70;;;;;;5087396;27;43973;-75
2022/08/25 05:19:27;;;;;;;1.50;1.50;;;25.50;62.10;;;;;;5101399;27;44126;-74
2022/08/25 05:21:55;;;;;;;1.60;1.50;;;25.50;62.30;;;;;;5106755;27;43782;-74
2022/08/25 05:24:25;;;;;;;1.70;1.70;;;25.40;62.30;;;;;;5107225;27;43956;-73
2022/08/25 05:26:53;;;;;;;1.75;1.75;;;25.40;62.20;;;;;;5106220;27;43892;-74
2022/08/25 05:29:21;;;;;;;1.90;1.80;;;25.30;62.70;;;;;;5107548;27;43908;-73
2022/08/25 05:31:50;;;;;;;1.70;1.70;;;25.30;62.90;;;;;;5080833;27;45656;-73
2022/08/25 05:34:18;;;;;;;1.60;1.60;;;25.30;62.80;;;;;;5087335;27;43510;-73
2022/08/25 05:36:46;;;;;;;1.70;1.70;;;25.20;62.30;;;;;;5100781;27;43991;-74
2022/08/25 05:39:14;;;;;;;1.98;1.90;;;25.20;63.00;;;;;;5087689;27;43424;-73
2022/08/25 05:41:42;;;;;;;1.60;1.60;;;25.20;62.80;;;;;;5086962;27;44024;-73
2022/08/25 05:44:11;;;;;;;1.50;1.50;;;25.20;62.40;;;;;;5068584;27;45860;-73
2022/08/25 05:46:39;;;;;;;1.70;1.70;;;25.40;61.90;;;;;;5068749;27;43901;-73
2022/08/25 05:49:08;;;;;;;1.90;1.90;;;25.50;61.20;;;;;;5068150;27;44187;-73
2022/08/25 05:51:36;;;;;;;1.98;1.88;;;25.50;61.10;;;;;;5087048;27;43957;-73
2022/08/25 05:54:05;;;;;;;1.60;1.60;;;25.50;61.20;;;;;;5068416;27;44739;-73
2022/08/25 05:56:33;;;;;;;1.70;1.70;;;25.40;61.60;;;;;;5088172;27;43431;-74
2022/08/25 05:59:01;;;;;;;1.90;1.90;;;25.30;61.30;;;;;;5107247;27;43713;-73
2022/08/25 06:04:23;;;;;;;1.75;1.75;;;25.30;61.70;;;;;;5068267;28;44705;-73
2022/08/25 06:06:52;;;;;;;1.90;1.80;;;25.20;62.20;;;;;;5068459;28;44086;-73
2022/08/25 06:09:20;;;;;;;1.70;1.70;;;25.20;61.70;;;;;;5087292;27;43332;-73
2022/08/25 06:11:48;;;;;;;1.80;1.80;;;25.20;62.00;;;;;;5098121;27;44056;-72
2022/08/25 06:14:22;;;;;;;2.20;2.10;;;25.10;61.70;;;;;;5106234;27;44030;-74
2022/08/25 06:16:50;;;;;;;2.07;1.93;;;25.10;62.20;;;;;;5105827;27;43947;-72
2022/08/25 06:19:18;;;;;;;1.80;1.80;;;25.10;61.90;;;;;;5106566;27;44330;-73
2022/08/25 06:21:47;;;;;;;1.65;1.65;;;25.20;62.00;;;;;;5106063;27;44012;-73
2022/08/25 06:24:15;;;;;;;1.65;1.63;;;25.30;61.50;;;;;;5106437;27;43988;-73
2022/08/25 06:26:43;;;;;;;2.00;2.00;;;25.40;60.90;;;;;;5087048;27;43944;-73
2022/08/25 06:29:12;;;;;;;1.60;1.60;;;25.50;60.80;;;;;;5106652;27;44187;-74
2022/08/25 06:31:41;;;;;;;1.70;1.70;;;25.40;61.60;;;;;;5106043;27;44375;-73
2022/08/25 06:34:09;;;;;;;1.87;1.77;;;25.40;60.90;;;;;;5106366;27;44001;-74
2022/08/25 06:36:37;;;;;;;1.97;1.97;;;25.30;61.30;;;;;;5086567;27;44011;-74
2022/08/25 06:39:06;;;;;;;1.80;1.80;;;25.30;61.80;;;;;;5086347;27;43980;-73
2022/08/25 06:41:37;;;;;;;1.90;1.90;;;25.30;61.70;;;;;;5086029;27;43877;-74
2022/08/25 06:44:05;;;;;;;1.63;1.63;;;25.20;61.60;;;;;;5086322;27;43817;-73
2022/08/25 06:46:33;;;;;;;2.10;2.00;;;25.20;62.30;;;;;;5086782;27;44023;-73
2022/08/25 06:49:04;;;;;;;1.60;1.60;;;25.20;62.00;;;;;;5086402;27;44048;-73
2022/08/25 06:51:34;;;;;;;1.80;1.80;;;25.30;61.80;;;;;;5067842;27;45617;-75
2022/08/25 06:54:03;;;;;;;1.73;1.73;;;25.40;61.40;;;;;;5087024;27;44019;-72
2022/08/25 06:56:32;;;;;;;1.90;1.90;;;25.40;60.90;;;;;;5080235;27;43938;-72
2022/08/25 06:59:00;;;;;;;1.80;1.70;;;25.50;60.80;;;;;;5086210;27;43356;-72
2022/08/25 07:01:30;;;;;;;1.70;1.70;;;25.40;60.80;;;;;;5089661;27;43879;-73
2022/08/25 07:03:59;;;;;;;1.80;1.80;;;25.30;61.30;;;;;;5071079;27;44683;-74
2022/08/25 07:06:29;;;;;;;1.90;1.90;;;25.30;61.50;;;;;;5089723;27;43927;-74
2022/08/25 07:08:57;;;;;;;1.80;1.80;;;25.30;61.30;;;;;;5071993;27;43866;-74
2022/08/25 07:11:25;;;;;;;2.23;1.80;;;25.20;61.40;;;;;;5070727;27;45737;-73
2022/08/25 07:13:55;;;;;;;1.90;1.80;;;25.20;62.00;;;;;;5097923;27;44106;-73
2022/08/25 07:16:23;;;;;;;1.90;1.90;;;25.10;62.00;;;;;;5094096;27;43867;-73
2022/08/25 07:18:57;;;;;;;1.98;1.98;;;25.10;62.20;;;;;;5090081;27;43926;-73
2022/08/25 07:21:27;;;;;;;1.98;1.98;;;25.10;62.00;;;;;;5070976;28;45882;-74
2022/08/25 07:24:00;;;;;;;2.20;2.00;;;25.10;62.10;;;;;;5070927;28;44730;-74
2022/08/25 07:26:31;;;;;;;1.80;1.80;;;25.10;62.80;;;;;;5089461;27;44036;-72
2022/08/25 07:29:09;;;;;;;2.15;1.90;;;25.10;62.40;;;;;;5089405;27;43976;-73
2022/08/25 07:31:37;;;;;;;2.10;2.10;;;25.20;62.00;;;;;;5089275;27;43924;-73
2022/08/25 07:36:52;;;;;;;1.90;1.90;;;25.40;61.20;;;;;;5108654;27;43331;-73
2022/08/25 07:39:20;;;;;;;2.07;2.07;;;25.40;60.80;;;;;;5090562;27;43857;-73
2022/08/25 07:41:49;;;;;;;1.80;1.80;;;25.40;61.30;;;;;;5106725;27;43675;-73
2022/08/25 07:44:20;;;;;;;1.90;1.90;;;25.30;61.90;;;;;;5089025;27;44012;-73
2022/08/25 07:46:49;;;;;;;1.73;1.60;;;25.30;61.80;;;;;;5088770;27;43449;-72
2022/08/25 07:49:17;;;;;;;1.90;1.90;;;25.30;61.80;;;;;;5089478;27;44132;-73
2022/08/25 07:52:05;;;;;;;1.90;1.90;;;25.20;61.70;;;;;;5070334;28;45486;-72
2022/08/25 07:54:35;;;;;;;1.80;1.80;;;25.20;62.40;;;;;;5107923;27;43926;-73
2022/08/25 07:57:06;;;;;;;1.90;1.90;;;25.10;62.50;;;;;;5096118;27;43878;-72
2022/08/25 07:59:35;;;;;;;1.70;1.70;;;25.10;62.50;;;;;;5089747;27;43944;-74
2022/08/25 08:02:08;;;;;;;1.80;1.80;;;25.10;62.40;;;;;;5087911;27;44115;-74
2022/08/25 08:04:47;;;;;;;2.00;2.00;;;25.10;63.00;;;;;;5087949;28;44054;-73
2022/08/25 08:07:17;;;;;;;1.90;1.90;;;25.10;63.20;;;;;;5077970;27;44018;-73
2022/08/25 08:09:46;;;;;;;1.83;1.83;;;25.10;62.70;;;;;;5107041;27;43954;-74
2022/08/25 08:12:19;;;;;;;3.43;1.90;;;25.30;62.30;;;;;;5088371;27;44239;-73
2022/08/25 08:14:51;;;;;;;2.03;1.90;;;25.30;61.80;;;;;;5094467;27;44093;-74
2022/08/25 08:17:19;;;;;;;2.00;1.83;;;25.30;61.80;;;;;;5088623;27;44095;-72
2022/08/25 08:19:47;;;;;;;2.07;1.97;;;25.30;61.80;;;;;;5105019;27;43992;-73
2022/08/25 08:22:15;;;;;;;1.90;1.90;;;25.20;62.60;;;;;;5108073;27;44862;-74
2022/08/25 08:24:44;;;;;;;3.70;2.17;;;25.20;63.10;;;;;;5091196;27;43785;-72
2022/08/25 08:27:23;;;;;;;2.10;1.90;;;25.20;63.00;;;;;;5069618;28;44559;-73
2022/08/25 08:29:53;;;;;;;2.10;1.90;;;25.10;63.50;;;;;;5088887;27;43973;-73
2022/08/25 08:32:21;;;;;;;1.93;1.83;;;25.10;63.30;;;;;;5069531;28;46706;-73
2022/08/25 08:35:08;;;;;;;2.23;2.10;;;25.10;63.70;;;;;;5088254;27;43766;-72
2022/08/25 08:37:40;;;;;;;2.03;1.97;;;25.20;63.70;;;;;;5089653;27;44264;-73
2022/08/25 08:40:10;;;;;;;1.80;1.70;;;25.30;63.50;;;;;;5108609;27;43782;-74
2022/08/25 08:42:45;;;;;;;1.70;1.70;;;25.40;63.20;;;;;;5089099;27;46004;-72
2022/08/25 08:45:25;;;;;;;1.97;1.83;;;25.40;63.10;;;;;;5098336;27;43964;-72
2022/08/25 08:48:09;;;;;;;1.87;1.87;;;25.40;62.90;;;;;;5074143;27;43405;-73
2022/08/25 08:50:39;;;;;;;1.80;1.80;;;25.30;63.20;;;;;;5088206;27;43902;-73
2022/08/25 08:53:09;;;;;;;1.70;1.70;;;25.30;63.70;;;;;;5088132;27;43991;-73
2022/08/25 08:55:39;;;;;;;1.80;1.80;;;25.30;63.80;;;;;;5107501;27;43464;-73
2022/08/25 08:58:12;;;;;;;2.00;1.93;;;25.20;63.60;;;;;;5107521;27;44003;-72
2022/08/25 09:00:44;;;;;;;1.90;1.83;;;25.20;63.90;;;;;;5108152;27;43836;-73
2022/08/25 09:03:27;;;;;;;1.70;1.70;;;25.10;64.30;;;;;;5107404;27;43849;-73
2022/08/25 09:05:56;;;;;;;1.80;1.80;;;25.10;64.30;;;;;;5107139;27;44075;-73
2022/08/25 09:08:24;;;;;;;1.83;1.77;;;25.10;64.00;;;;;;5107143;27;43360;-74
2022/08/25 09:11:01;;;;;;;1.77;1.77;;;25.10;63.80;;;;;;5088516;27;44060;-73
2022/08/25 09:13:43;;;;;;;1.90;1.90;;;25.10;64.60;;;;;;5107333;27;43926;-73
2022/08/25 09:19:10;;;;;;;1.80;1.70;;;25.10;64.60;;;;;;5088663;27;44033;-73
2022/08/25 09:21:51;;;;;;;1.83;1.83;;;25.10;64.30;;;;;;5068750;28;44082;-72
2022/08/25 09:24:26;;;;;;;1.60;1.60;;;25.10;65.00;;;;;;5080919;27;45326;-73
2022/08/25 09:27:00;;;;;;;1.80;1.80;;;25.10;64.90;;;;;;5086336;28;44068;-73
2022/08/25 09:29:30;;;;;;;1.60;1.60;;;25.20;64.60;;;;;;5087473;28;43405;-73
2022/08/25 09:32:00;;;;;;;2.00;1.90;;;25.30;64.10;;;;;;5087440;28;43873;-73
2022/08/25 09:34:30;;;;;;;1.80;1.80;;;25.40;63.80;;;;;;5074937;28;45614;-73
2022/08/25 09:36:58;;;;;;;1.50;1.50;;;25.50;63.90;;;;;;5087046;28;43905;-73
2022/08/25 09:39:27;;;;;;;1.60;1.60;;;25.40;63.70;;;;;;5100972;27;43952;-74
2022/08/25 09:41:57;;;;;;;1.53;1.53;;;25.40;64.20;;;;;;5087406;27;43388;-72
2022/08/25 09:44:27;;;;;;;1.97;1.87;;;25.30;64.10;;;;;;5087105;27;44064;-73
2022/08/25 09:47:02;;;;;;;1.90;1.90;;;25.30;64.10;;;;;;5086660;27;44107;-74
2022/08/25 09:49:39;;;;;;;1.73;1.73;;;25.30;64.70;;;;;;5087539;27;43999;-74
2022/08/25 09:52:26;;;;;;;1.60;1.60;;;25.30;65.50;;;;;;5087866;27;44106;-73
2022/08/25 09:54:54;;;;;;;1.60;1.60;;;25.20;64.80;;;;;;5093474;27;43849;-74
2022/08/25 09:57:31;;;;;;;1.57;1.50;;;25.20;64.50;;;;;;5086958;27;44007;-73
2022/08/25 10:00:11;;;;;;;5.80;1.70;;;25.20;64.40;;;;;;5068441;27;44094;-73
2022/08/25 10:02:41;;;;;;;2.90;2.20;;;25.20;65.10;;;;;;5105113;27;43889;-72
2022/08/25 10:05:21;;;;;;;1.90;1.90;;;25.20;64.90;;;;;;5107001;27;43932;-73
2022/08/25 10:07:52;;;;;;;1.70;1.70;;;25.20;64.60;;;;;;5099616;27;44090;-72
2022/08/25 10:10:25;;;;;;;1.80;1.80;;;25.20;64.40;;;;;;5086878;27;43367;-73
2022/08/25 10:12:53;;;;;;;2.00;1.90;;;25.10;65.20;;;;;;5082553;27;44448;-73
2022/08/25 10:15:25;;;;;;;1.80;1.80;;;25.10;65.50;;;;;;5106396;27;43655;-74
2022/08/25 10:18:16;;;;;;;2.83;1.80;;;25.30;65.40;;;;;;5106136;27;43985;-73
2022/08/25 10:20:46;;;;;;;1.97;1.87;;;25.30;64.90;;;;;;5106445;27;43754;-72
2022/08/25 10:23:15;;;;;;;2.33;2.00;;;25.50;64.60;;;;;;5106935;27;44035;-73
2022/08/25 10:25:44;;;;;;;2.07;1.97;;;25.50;64.10;;;;;;5106083;27;43984;-73
2022/08/25 10:28:31;;;;;;;1.90;1.90;;;25.50;63.90;;;;;;5105710;27;44036;-72
2022/08/25 10:31:01;;;;;;;1.90;1.90;;;25.40;64.20;;;;;;5105732;27;44028;-73
2022/08/25 10:33:35;;;;;;;1.73;1.70;;;25.40;64.80;;;;;;5087190;27;44145;-73
2022/08/25 10:36:07;;;;;;;1.90;1.90;;;25.40;64.60;;;;;;5090292;27;43568;-73
2022/08/25 10:38:39;;;;;;;2.10;2.00;;;25.30;64.20;;;;;;5090994;27;44633;-74
2022/08/25 10:41:21;;;;;;;2.20;2.10;;;25.30;65.40;;;;;;5090761;27;44039;-74
2022/08/25 10:43:52;;;;;;;1.97;1.87;;;25.30;64.90;;;;;;5098514;27;43435;-73
2022/08/25 10:46:24;;;;;;;1.70;1.70;;;25.30;64.60;;;;;;5108505;27;43999;-73
2022/08/25 10:48:58;;;;;;;2.23;2.23;;;25.30;64.50;;;;;;5090077;27;44241;-72
2022/08/25 10:51:44;;;;;;;3.60;2.27;;;25.20;65.50;;;;;;5071300;27;43913;-73
2022/08/25 10:54:23;;;;;;;1.90;1.90;;;25.20;65.80;;;;;;5090738;27;43836;-72
2022/08/25 10:56:56;;;;;;;2.10;2.00;;;25.30;64.80;;;;;;5096129;27;44133;-73
2022/08/25 10:59:35;;;;;;;2.13;2.03;;;25.30;64.20;;;;;;5102006;27;43824;-73
2022/08/25 11:02:25;;;;;;;2.00;2.00;;;25.40;64.10;;;;;;5109505;27;43855;-71
2022/08/25 11:04:58;;;;;;;1.80;1.70;;;25.50;63.90;;;;;;5089811;27;44037;-73
2022/08/25 11:07:28;;;;;;;2.10;2.00;;;25.40;63.70;;;;;;5089530;27;44022;-72
2022/08/25 11:09:59;;;;;;;1.90;1.90;;;25.40;64.40;;;;;;5071072;27;45112;-72
2022/08/25 11:12:30;;;;;;;2.10;2.10;;;25.40;64.40;;;;;;5106618;27;43398;-73
2022/08/25 11:14:59;;;;;;;2.10;2.00;;;25.30;64.00;;;;;;5091506;27;43936;-73
2022/08/25 11:17:35;;;;;;;2.07;2.07;;;25.30;63.80;;;;;;5097892;27;44637;-73
2022/08/25 11:20:08;;;;;;;1.93;1.93;;;25.30;64.80;;;;;;5089249;27;43920;-74
2022/08/25 11:22:41;;;;;;;2.10;2.10;;;25.30;64.80;;;;;;5095924;27;43975;-73
2022/08/25 11:25:13;;;;;;;2.10;2.00;;;25.20;64.20;;;;;;5089603;27;43832;-73
2022/08/25 11:27:44;;;;;;;2.22;2.13;;;25.20;64.10;;;;;;5084147;27;45623;-73
2022/08/25 11:30:14;;;;;;;2.23;2.13;;;25.20;65.20;;;;;;5094874;27;44354;-73
2022/08/25 11:32:45;;;;;;;2.00;2.00;;;25.20;65.50;;;;;;5089043;27;43450;-73
2022/08/25 11:35:17;;;;;;;2.47;2.37;;;25.30;65.20;;;;;;5096588;27;44000;-73
2022/08/25 11:37:52;;;;;;;2.00;2.00;;;25.40;65.70;;;;;;5088666;27;44064;-74
2022/08/25 11:40:36;;;;;;;2.17;2.17;;;25.50;64.60;;;;;;5073746;27;44465;-73
2022/08/25 11:43:11;;;;;;;2.03;2.03;;;25.50;64.30;;;;;;5108585;27;43960;-73
2022/08/25 11:45:51;;;;;;;2.17;2.07;;;25.50;64.00;;;;;;5088905;28;43900;-73
2022/08/25 11:48:39;;;;;;;2.30;2.10;;;25.50;64.50;;;;;;5088178;27;44027;-73
2022/08/25 11:51:08;;;;;;;2.17;2.00;;;25.50;64.70;;;;;;5070502;28;44589;-72
2022/08/25 11:53:37;;;;;;;2.40;2.20;;;25.40;64.40;;;;;;5070636;28;44017;-74
2022/08/25 11:56:11;;;;;;;4.03;2.10;;;25.40;64.40;;;;;;5089277;27;44031;-73
2022/08/25 11:58:41;;;;;;;2.10;2.10;;;25.30;64.90;;;;;;5087702;27;45076;-73
2022/08/25 12:01:11;;;;;;;2.30;2.20;;;25.30;65.30;;;;;;5089087;27;43962;-71
2022/08/25 12:03:52;;;;;;;1.97;1.97;;;25.30;65.10;;;;;;5088828;27;43355;-73
2022/08/25 12:06:29;;;;;;;2.00;1.90;;;25.30;64.90;;;;;;5088994;27;43831;-74
2022/08/25 12:09:16;;;;;;;2.07;1.97;;;25.30;65.40;;;;;;5088426;27;43963;-74
2022/08/25 12:11:53;;;;;;;2.33;2.23;;;25.20;65.70;;;;;;5087741;27;43945;-73
2022/08/25 12:14:43;;;;;;;2.10;2.10;;;25.30;65.50;;;;;;5088474;27;44045;-73
2022/08/25 12:17:24;;;;;;;1.83;1.83;;;25.40;65.30;;;;;;5088922;27;43766;-73
2022/08/25 12:19:57;;;;;;;2.10;2.10;;;25.40;64.90;;;;;;5088144;27;44028;-73
2022/08/25 12:22:54;;;;;;;2.20;2.00;;;25.40;64.90;;;;;;5087623;27;43995;-73
2022/08/25 12:25:39;;;;;;;1.90;1.90;;;25.30;65.40;;;;;;5070024;27;43482;-73
2022/08/25 12:28:36;;;;;;;2.03;1.83;;;25.40;65.00;;;;;;5093360;27;44122;-72
2022/08/25 12:31:09;;;;;;;1.87;1.87;;;25.30;65.10;;;;;;5100946;27;43929;-73
2022/08/25 12:33:43;;;;;;;1.80;1.80;;;25.30;65.80;;;;;;5080825;27;44990;-74
2022/08/25 12:36:11;;;;;;;2.05;1.95;;;25.30;65.90;;;;;;5088509;27;43936;-72
2022/08/25 12:38:43;;;;;;;2.20;2.10;;;25.30;65.70;;;;;;5070179;27;44044;-74
2022/08/25 12:41:20;;;;;;;1.90;1.83;;;25.30;65.50;;;;;;5087894;27;43877;-73
2022/08/25 12:43:52;;;;;;;2.07;1.97;;;25.30;65.40;;;;;;5069589;28;44875;-73
2022/08/25 12:46:34;;;;;;;2.00;2.00;;;25.20;66.10;;;;;;5088078;27;43927;-74
2022/08/25 12:49:02;;;;;;;1.90;1.90;;;25.30;66.80;;;;;;5095598;27;44060;-72
2022/08/25 12:51:47;;;;;;;2.20;2.00;;;25.40;65.90;;;;;;5107419;27;44085;-73
2022/08/25 12:54:18;;;;;;;3.13;1.95;;;25.50;65.50;;;;;;5107667;27;44072;-73
2022/08/25 12:56:51;;;;;;;2.23;2.13;;;25.60;65.00;;;;;;5088383;27;44045;-73
2022/08/25 12:59:21;;;;;;;2.20;2.10;;;25.60;65.00;;;;;;5107622;27;44031;-73
2022/08/25 13:01:57;;;;;;;2.23;2.20;;;25.50;64.80;;;;;;5103096;27;44015;-73
2022/08/25 13:05:11;;;;;;;1.97;1.97;;;25.50;65.50;;;;;;5087957;27;44265;-73
2022/08/25 13:07:55;;;;;;;2.30;2.20;;;25.50;65.30;;;;;;5061257;28;44001;-73
2022/08/25 13:10:38;;;;;;;1.93;1.90;;;25.40;65.30;;;;;;5088164;27;43758;-73
2022/08/25 13:13:11;;;;;;;2.30;2.20;;;25.40;65.50;;;;;;5087352;27;44296;-73
2022/08/25 13:15:40;;;;;;;1.92;1.92;;;25.30;65.90;;;;;;5068751;27;44396;-73
2022/08/25 13:18:16;;;;;;;2.00;2.00;;;25.40;65.80;;;;;;5079515;27;43949;-73
2022/08/25 13:20:45;;;;;;;2.38;2.17;;;25.30;65.70;;;;;;5088715;27;44079;-74